EW7401 Weather Reports


time (UTC)temp
C
wind
direction
speed
KPH
gust
KPH
rain 1hr
cm
rain 24hr
cm
rain mn
cm
humidity
%
barometer
mb
20220627204105 24 312 8.0 11.3 0.00 0.00 0.00 47 1009.8
20220627203605 24 307 8.0 12.9 0.00 0.00 0.00 47 1009.9
20220627203105 23 316 9.7 14.5 0.00 0.00 0.00 48 1009.9
20220627202605 23 316 9.7 14.5 0.00 0.00 0.00 47 1010.0
20220627202105 23 314 11.3 14.5 0.00 0.00 0.00 48 1010.0
20220627201605 23 313 9.7 14.5 0.00 0.00 0.00 49 1010.0
20220627201105 23 320 9.7 14.5 0.00 0.00 0.00 49 1010.0
20220627200605 23 318 11.3 14.5 0.00 0.00 0.00 49 1010.1
20220627200105 23 325 8.0 14.5 0.00 0.00 0.00 49 1010.1
20220627195605 23 323 9.7 14.5 0.00 0.00 0.00 49 1010.1
20220627195105 23 316 11.3 14.5 0.00 0.00 0.00 48 1010.2
20220627194605 23 319 11.3 16.1 0.00 0.00 0.00 48 1010.2
20220627194105 23 307 14.5 19.3 0.00 0.00 0.00 50 1010.3
20220627193605 22 314 12.9 19.3 0.00 0.00 0.00 53 1010.3
20220627193105 22 310 8.0 11.3 0.00 0.00 0.00 54 1010.5
20220627192605 22 311 9.7 14.5 0.00 0.00 0.00 53 1010.5
20220627192104 22 307 9.7 16.1 0.00 0.00 0.00 53 1010.5
20220627191605 22 311 11.3 16.1 0.00 0.00 0.00 53 1010.4
20220627191105 22 307 11.3 16.1 0.00 0.00 0.00 54 1010.5
20220627190604 22 317 11.3 16.1 0.00 0.00 0.00 54 1010.5
20220627190105 22 315 11.3 19.3 0.00 0.00 0.00 54 1010.5
20220627185605 22 314 14.5 19.3 0.00 0.00 0.00 53 1010.6
20220627185105 22 318 9.7 14.5 0.00 0.00 0.00 52 1010.6
20220627184604 22 318 11.3 16.1 0.00 0.00 0.00 53 1010.6
20220627184105 22 317 11.3 16.1 0.00 0.00 0.00 53 1010.6
20220627183605 22 323 9.7 16.1 0.00 0.00 0.00 53 1010.6
20220627183104 22 320 9.7 14.5 0.00 0.00 0.00 54 1010.9
20220627182604 21 316 8.0 14.5 0.00 0.00 0.00 55 1010.8
20220627182105 21 313 11.3 19.3 0.00 0.00 0.00 57 1010.6
20220627181604 20 308 11.3 16.1 0.00 0.00 0.00 58 1010.6
20220627181105 20 309 12.9 19.3 0.00 0.00 0.00 59 1010.7
20220627180605 20 312 11.3 19.3 0.00 0.00 0.00 60 1010.6
20220627180105 20 311 9.7 16.1 0.00 0.00 0.00 58 1010.6
20220627175605 21 322 8.0 19.3 0.00 0.00 0.00 56 1010.6
20220627175104 21 315 9.7 19.3 0.00 0.00 0.00 54 1010.6
20220627174605 21 317 14.5 19.3 0.00 0.00 0.00 54 1010.7
20220627174104 21 313 11.3 19.3 0.00 0.00 0.00 54 1010.8
20220627173605 21 310 14.5 19.3 0.00 0.00 0.00 54 1010.8
20220627173104 21 318 14.5 19.3 0.00 0.00 0.00 54 1010.9
20220627172605 21 315 16.1 19.3 0.00 0.00 0.00 54 1010.9
20220627172105 21 317 12.9 19.3 0.00 0.00 0.00 54 1011.0
20220627171605 21 315 14.5 19.3 0.00 0.00 0.00 54 1011.1
20220627171104 21 312 16.1 20.9 0.00 0.00 0.00 54 1011.1
20220627170604 21 314 17.7 22.5 0.00 0.00 0.00 55 1011.1
20220627170105 21 314 16.1 20.9 0.00 0.00 0.00 56 1011.1
20220627165605 20 311 16.1 22.5 0.00 0.00 0.00 57 1011.2
20220627165105 20 314 16.1 20.9 0.00 0.00 0.00 57 1011.3
20220627164605 20 316 16.1 20.9 0.00 0.00 0.00 58 1011.5
20220627164104 20 309 16.1 20.9 0.00 0.00 0.00 60 1011.6
20220627163606 19 310 16.1 22.5 0.00 0.00 0.00 62 1011.6
20220627163105 18 316 16.1 22.5 0.00 0.00 0.00 64 1011.6
20220627162605 18 311 14.5 19.3 0.00 0.00 0.00 66 1011.6
20220627162105 17 307 14.5 19.3 0.00 0.00 0.00 68 1011.6
20220627161605 17 310 12.9 16.1 0.00 0.00 0.00 69 1011.6
20220627161105 17 317 8.0 14.5 0.00 0.00 0.00 69 1011.6
20220627160605 17 302 8.0 16.1 0.00 0.00 0.00 69 1011.6
20220627160105 17 311 9.7 16.1 0.00 0.00 0.00 70 1011.7
20220627155605 17 321 9.7 16.1 0.00 0.00 0.00 70 1011.7
20220627155104 17 315 8.0 14.5 0.00 0.00 0.00 70 1011.7
20220627154605 16 315 8.0 14.5 0.00 0.00 0.00 70 1011.8
20220627154105 16 319 11.3 16.1 0.00 0.00 0.00 71 1011.8
20220627153605 16 321 6.4 11.3 0.00 0.00 0.00 72 1011.8
20220627153104 16 324 8.0 12.9 0.00 0.00 0.00 71 1011.8
20220627152605 16 318 6.4 14.5 0.00 0.00 0.00 71 1011.9
20220627152105 16 329 8.0 16.1 0.00 0.00 0.00 71 1011.9
20220627151605 16 331 9.7 16.1 0.00 0.00 0.00 71 1012.0
20220627151105 16 327 9.7 19.3 0.00 0.00 0.00 71 1012.0
20220627150605 16 324 8.0 16.1 0.00 0.00 0.00 71 1011.9
20220627150105 16 322 11.3 16.1 0.00 0.00 0.00 71 1011.9
20220627145605 16 320 11.3 19.3 0.00 0.00 0.00 71 1011.9
20220627145105 16 317 11.3 19.3 0.00 0.00 0.00 70 1012.0
20220627144605 16 315 14.5 19.3 0.00 0.00 0.00 71 1012.0
20220627144105 16 314 14.5 20.9 0.00 0.00 0.00 71 1011.9
20220627143605 16 314 14.5 19.3 0.00 0.00 0.00 71 1011.9
20220627143104 16 317 14.5 22.5 0.00 0.00 0.00 72 1011.8
20220627142605 16 310 14.5 19.3 0.00 0.00 0.00 73 1011.7
20220627142105 16 313 11.3 19.3 0.00 0.00 0.00 73 1011.8
20220627141605 15 319 12.9 19.3 0.00 0.00 0.00 74 1011.8
20220627141105 15 322 11.3 19.3 0.00 0.00 0.00 74 1011.9
20220627140605 15 319 11.3 16.1 0.00 0.00 0.00 75 1011.9
20220627140105 15 323 11.3 19.3 0.00 0.00 0.00 76 1011.9
20220627135604 15 315 14.5 20.9 0.00 0.00 0.00 77 1011.8
20220627135105 15 317 12.9 20.9 0.00 0.00 0.00 78 1011.8
20220627134605 15 320 12.9 19.3 0.00 0.00 0.00 78 1011.7
20220627134105 14 312 14.5 19.3 0.00 0.00 0.00 79 1011.7
20220627133604 14 327 11.3 19.3 0.00 0.00 0.00 79 1011.8
20220627133105 14 326 9.7 16.1 0.00 0.00 0.00 79 1011.8
20220627132604 14 320 11.3 19.3 0.00 0.00 0.00 79 1011.8
20220627132104 14 331 12.9 19.3 0.00 0.00 0.00 79 1011.7
20220627131605 14 322 11.3 16.1 0.00 0.00 0.00 79 1011.8
20220627131104 14 328 9.7 14.5 0.00 0.00 0.00 79 1011.9
20220627130604 14 321 9.7 14.5 0.00 0.00 0.00 79 1011.9
20220627130105 14 326 8.0 11.3 0.00 0.00 0.00 78 1011.8
20220627125604 14 315 9.7 16.1 0.00 0.00 0.00 77 1011.8
20220627125104 15 331 9.7 16.1 0.00 0.00 0.00 77 1011.8
20220627124604 15 322 9.7 16.1 0.00 0.00 0.00 76 1011.8
20220627124105 15 328 8.0 14.5 0.00 0.00 0.00 76 1011.8
20220627123604 15 322 8.0 14.5 0.00 0.00 0.00 75 1011.7
20220627123105 15 321 6.4 9.7 0.00 0.00 0.00 74 1011.7
20220627122605 15 327 9.7 14.5 0.00 0.00 0.00 73 1011.8
20220627122104 15 339 9.7 11.3 0.00 0.00 0.00 73 1011.8
20220627121604 15 332 8.0 9.7 0.00 0.00 0.00 73 1011.8
20220627121104 16 327 6.4 9.7 0.00 0.00 0.00 72 1011.8
20220627120605 16 314 4.8 11.3 0.00 0.00 0.00 71 1011.7
20220627120105 16 331 8.0 11.3 0.00 0.00 0.00 71 1011.7
20220627115604 16 330 8.0 11.3 0.00 0.00 0.00 70 1011.8
20220627115105 16 315 8.0 11.3 0.00 0.00 0.00 70 1011.8
20220627114604 16 311 6.4 9.7 0.00 0.00 0.00 70 1011.7
20220627114105 16 312 4.8 8.0 0.00 0.00 0.00 70 1011.7
20220627113605 16 313 4.8 4.8 0.00 0.00 0.00 69 1011.7
20220627113105 16 310 4.8 8.0 0.00 0.00 0.00 69 1011.7
20220627112605 16 308 4.8 8.0 0.00 0.00 0.00 69 1011.7
20220627112105 16 309 8.0 9.7 0.00 0.00 0.00 70 1011.7
20220627111604 16 314 8.0 9.7 0.00 0.00 0.00 70 1011.7
20220627111104 16 313 8.0 9.7 0.00 0.00 0.00 70 1011.7
20220627110604 16 318 8.0 9.7 0.00 0.00 0.00 69 1011.7
20220627110105 16 311 4.8 8.0 0.00 0.00 0.00 69 1011.7
20220627105605 16 317 6.4 9.7 0.00 0.00 0.00 69 1011.7
20220627105105 16 311 6.4 11.3 0.00 0.00 0.00 69 1011.7
20220627104604 16 320 8.0 9.7 0.00 0.00 0.00 69 1011.7
20220627104105 16 324 8.0 11.3 0.00 0.00 0.00 69 1011.6
20220627103604 16 313 9.7 11.3 0.00 0.00 0.00 69 1011.6
20220627103104 16 322 9.7 9.7 0.00 0.00 0.00 69 1011.6
20220627102604 16 308 8.0 9.7 0.00 0.00 0.00 68 1011.7
20220627102104 16 321 9.7 9.7 0.00 0.00 0.00 69 1011.7
20220627101606 16 318 8.0 11.3 0.00 0.00 0.00 69 1011.7
20220627101105 16 318 8.0 11.3 0.00 0.00 0.00 69 1011.7
20220627100604 15 322 8.0 11.3 0.00 0.00 0.00 70 1011.7
20220627100105 15 310 8.0 9.7 0.00 0.00 0.00 71 1011.7
20220627095605 15 312 4.8 4.8 0.00 0.00 0.00 71 1011.7
20220627095105 15 325 3.2 4.8 0.00 0.00 0.00 71 1011.7
20220627094605 15 311 4.8 4.8 0.00 0.00 0.00 71 1011.6
20220627094104 15 307 4.8 4.8 0.00 0.00 0.00 72 1011.6
20220627093604 15 310 4.8 4.8 0.00 0.00 0.00 73 1011.6
20220627093105 15 302 4.8 8.0 0.00 0.00 0.00 74 1011.6
20220627092604 15 311 6.4 8.0 0.00 0.00 0.00 74 1011.6
20220627092104 15 312 6.4 8.0 0.00 0.00 0.00 74 1011.7
20220627091605 15 311 3.2 4.8 0.00 0.00 0.00 74 1011.7
20220627091104 15 311 3.2 4.8 0.00 0.00 0.00 74 1011.7
20220627090605 15 302 3.2 4.8 0.00 0.00 0.00 74 1011.6
20220627090105 15 302 3.2 4.8 0.00 0.00 0.00 74 1011.6
20220627085604 15 297 1.6 3.2 0.00 0.00 0.00 74 1011.6
20220627085104 15 297 1.6 3.2 0.00 0.00 0.00 73 1011.6
20220627084604 15 297 3.2 4.8 0.00 0.00 0.00 73 1011.6
20220627084104 15 299 4.8 4.8 0.00 0.00 0.00 73 1011.6
20220627083605 15 314 3.2 4.8 0.00 0.00 0.00 73 1011.7
20220627083104 15 330 3.2 4.8 0.00 0.00 0.00 72 1011.6
20220627082604 15 303 4.8 8.0 0.00 0.00 0.00 71 1011.6
20220627082105 15 299 8.0 9.7 0.00 0.00 0.00 69 1011.5
20220627081604 16 296 4.8 8.0 0.00 0.00 0.00 68 1011.5
20220627081104 16 300 6.4 8.0 0.00 0.00 0.00 66 1011.5
20220627080604 17 250 1.6 4.8 0.00 0.00 0.00 64 1011.5
20220627080104 18 250 1.6 4.8 0.00 0.00 0.00 62 1011.4
20220627075604 18 250 1.6 3.2 0.00 0.00 0.00 60 1011.4
20220627075105 18 250 1.6 4.8 0.00 0.00 0.00 58 1011.4
20220627074604 19 228 0.0 1.6 0.00 0.00 0.00 56 1011.4
20220627074104 20 228 1.6 4.8 0.00 0.00 0.00 54 1011.4
20220627073604 20 232 1.6 3.2 0.00 0.00 0.00 54 1011.4
20220627073104 20 246 1.6 4.8 0.00 0.00 0.00 47 1011.4
20220627072604 20 222 3.2 4.8 0.00 0.00 0.00 48 1011.3
20220627072104 21 218 1.6 8.0 0.00 0.00 0.00 49 1011.4
20220627071605 21 216 3.2 8.0 0.00 0.00 0.00 46 1011.3
20220627071104 21 231 4.8 8.0 0.00 0.00 0.00 45 1011.2
20220627070605 21 231 3.2 4.8 0.00 0.00 0.00 44 1011.4
20220627070105 21 221 3.2 4.8 0.00 0.00 0.00 44 1011.5
20220627065604 21 218 4.8 4.8 0.00 0.00 0.00 43 1011.4
20220627065104 21 229 4.8 8.0 0.00 0.00 0.00 43 1011.4
20220627064605 21 232 6.4 9.7 0.00 0.00 0.00 43 1011.5
20220627064104 21 238 6.4 9.7 0.00 0.00 0.00 43 1011.6
20220627063604 21 227 8.0 12.9 0.00 0.00 0.00 44 1011.5
20220627063105 21 229 8.0 11.3 0.00 0.00 0.00 45 1011.5
20220627062605 21 234 8.0 9.7 0.00 0.00 0.00 46 1011.6
20220627062104 20 231 8.0 9.7 0.00 0.00 0.00 47 1011.6
20220627061605 20 244 3.2 4.8 0.00 0.00 0.00 51 1011.6
20220627061104 20 236 4.8 8.0 0.00 0.00 0.00 48 1011.6
20220627060604 20 236 3.2 4.8 0.00 0.00 0.00 50 1011.6
20220627060104 20 245 3.2 4.8 0.00 0.00 0.00 51 1011.6
20220627055604 20 236 3.2 4.8 0.00 0.00 0.00 54 1011.6
20220627055104 20 236 3.2 4.8 0.00 0.00 0.00 54 1011.6
20220627054604 20 219 3.2 4.8 0.00 0.00 0.00 54 1011.5
20220627054104 20 219 0.0 0.0 0.00 0.00 0.00 55 1011.6
20220627053605 20 219 0.0 0.0 0.00 0.00 0.00 54 1011.6
20220627053104 20 219 0.0 1.6 0.00 0.00 0.00 54 1011.6
20220627052604 20 219 0.0 1.6 0.00 0.00 0.00 54 1011.6
20220627052109 20 219 1.6 3.2 0.00 0.00 0.00 53 1011.6
20220627051604 20 219 1.6 3.2 0.00 0.00 0.00 54 1011.6
20220627051104 20 219 3.2 4.8 0.00 0.00 0.00 53 1011.6
20220627050604 20 206 3.2 4.8 0.00 0.00 0.00 54 1011.6
20220627050104 20 223 3.2 4.8 0.00 0.00 0.00 56 1011.6
20220627045604 20 223 3.2 4.8 0.00 0.00 0.00 55 1011.6
20220627045105 20 224 3.2 4.8 0.00 0.00 0.00 56 1011.5
20220627044605 21 245 3.2 4.8 0.00 0.00 0.00 54 1011.5
20220627044105 21 300 1.6 4.8 0.00 0.00 0.00 50 1011.5
20220627043606 21 300 0.0 1.6 0.00 0.00 0.00 50 1011.3
20220627043105 21 300 1.6 3.2 0.00 0.00 0.00 48 1011.3
20220627042605 21 300 1.6 4.8 0.00 0.00 0.00 47 1011.2
20220627042105 21 304 4.8 4.8 0.00 0.00 0.00 47 1011.2
20220627041605 21 294 4.8 8.0 0.00 0.00 0.00 47 1011.1
20220627041105 22 301 8.0 9.7 0.00 0.00 0.00 46 1011.1
20220627040605 22 298 6.4 8.0 0.00 0.00 0.00 46 1011.1
20220627040106 22 301 6.4 9.7 0.00 0.00 0.00 46 1011.1
20220627035605 22 301 8.0 8.0 0.00 0.00 0.00 46 1011.2
20220627035105 22 301 4.8 9.7 0.00 0.00 0.00 45 1011.2
20220627034606 22 296 6.4 8.0 0.00 0.00 0.00 44 1011.2
20220627034105 22 304 8.0 9.7 0.00 0.00 0.00 43 1011.3
20220627033606 23 297 6.4 9.7 0.00 0.00 0.00 43 1011.3
20220627033106 23 295 8.0 9.7 0.00 0.00 0.00 43 1011.3
20220627032605 23 307 8.0 8.0 0.00 0.00 0.00 42 1011.4
20220627032105 23 301 8.0 9.7 0.00 0.00 0.00 42 1011.4
20220627031605 23 305 8.0 11.3 0.00 0.00 0.00 41 1011.4
20220627031106 23 306 8.0 11.3 0.00 0.00 0.00 41 1011.5
20220627030605 23 313 8.0 12.9 0.00 0.00 0.00 40 1011.5
20220627030105 24 314 9.7 12.9 0.00 0.00 0.00 39 1011.5
20220627025605 24 310 8.0 11.3 0.00 0.00 0.00 39 1011.5
20220627025106 24 306 9.7 12.9 0.00 0.00 0.00 39 1011.6
20220627024605 25 314 9.7 14.5 0.00 0.00 0.00 38 1011.6
20220627024106 25 310 11.3 14.5 0.00 0.00 0.00 38 1011.6
20220627023605 25 310 11.3 14.5 0.00 0.00 0.00 38 1011.6
20220627023105 25 308 9.7 14.5 0.00 0.00 0.00 39 1011.7
20220627022605 25 311 8.0 11.3 0.00 0.00 0.00 38 1011.7
20220627022105 25 331 4.8 11.3 0.00 0.00 0.00 38 1011.7
20220627021605 25 316 8.0 14.5 0.00 0.00 0.00 37 1011.8
20220627021105 25 326 9.7 12.9 0.00 0.00 0.00 37 1011.8
20220627020605 25 319 9.7 14.5 0.00 0.00 0.00 37 1011.8
20220627020106 25 316 11.3 16.1 0.00 0.00 0.00 37 1011.8
20220627015605 25 319 9.7 16.1 0.00 0.00 0.00 37 1011.9
20220627015105 25 315 9.7 14.5 0.00 0.00 0.00 37 1011.9
20220627014605 25 312 11.3 16.1 0.00 0.00 0.00 37 1012.0
20220627014105 24 310 11.3 19.3 0.00 0.00 0.00 38 1012.1
20220627013605 24 313 11.3 19.3 0.00 0.00 0.00 38 1012.1
20220627013105 24 316 9.7 16.1 0.00 0.00 0.00 39 1012.1
20220627012605 24 323 11.3 16.1 0.00 0.00 0.00 38 1012.1
20220627012105 24 313 11.3 19.3 0.00 0.00 0.00 39 1012.1
20220627011605 24 320 9.7 16.1 0.00 0.00 0.00 39 1012.2
20220627011105 24 314 11.3 19.3 0.00 0.00 0.00 39 1012.2
20220627010605 24 317 9.7 16.1 0.00 0.00 0.00 38 1012.2
20220627010105 24 318 11.3 16.1 0.00 0.00 0.00 38 1012.2
20220627005605 24 317 11.3 16.1 0.00 0.00 0.00 39 1012.3
20220627005105 24 315 11.3 19.3 0.00 0.00 0.00 39 1012.4
20220627004605 24 309 14.5 19.3 0.00 0.00 0.00 39 1012.5
20220627004105 24 317 12.9 16.1 0.00 0.00 0.00 39 1012.6
20220627003605 24 317 11.3 16.1 0.00 0.00 0.00 40 1012.5
20220627003105 24 319 11.3 19.3 0.00 0.00 0.00 40 1012.6
20220627002605 24 319 11.3 19.3 0.00 0.00 0.00 41 1012.6
20220627002105 23 317 16.1 19.3 0.00 0.00 0.00 41 1012.7
20220627001605 23 312 14.5 19.3 0.00 0.00 0.00 43 1012.7
20220627001105 23 315 12.9 19.3 0.00 0.00 0.00 43 1012.7
20220627000605 23 310 14.5 19.3 0.00 0.00 0.00 45 1012.7
20220627000105 23 313 11.3 19.3 0.00 0.00 0.00 44 1012.7
20220626235605 23 324 11.3 19.3 0.00 0.00 0.00 43 1012.7
20220626235105 24 322 9.7 16.1 0.00 0.00 0.00 42 1012.8
20220626234605 24 318 11.3 16.1 0.00 0.00 0.00 41 1012.9
20220626234105 24 322 14.5 19.3 0.00 0.00 0.00 40 1012.9
20220626233606 25 308 19.3 22.5 0.00 0.00 0.00 39 1013.1
20220626233105 25 316 19.3 22.5 0.00 0.00 0.00 39 1013.1
20220626232605 25 319 19.3 24.1 0.00 0.00 0.00 39 1013.2
20220626232105 25 318 16.1 22.5 0.00 0.00 0.00 39 1013.2
20220626231605 25 311 17.7 22.5 0.00 0.00 0.00 39 1013.2
20220626231105 25 315 17.7 22.5 0.00 0.00 0.00 39 1013.2
20220626230605 25 315 17.7 22.5 0.00 0.00 0.00 39 1013.3
20220626230105 25 317 16.1 20.9 0.00 0.00 0.00 39 1013.3
20220626225605 25 316 16.1 22.5 0.00 0.00 0.00 39 1013.5
20220626225105 24 312 16.1 20.9 0.00 0.00 0.00 40 1013.6
20220626224605 24 313 16.1 22.5 0.00 0.00 0.00 40 1013.7
20220626224105 24 315 16.1 22.5 0.00 0.00 0.00 40 1013.7
20220626223604 24 313 16.1 22.5 0.00 0.00 0.00 41 1013.7
20220626223105 24 315 19.3 22.5 0.00 0.00 0.00 39 1013.8
20220626222605 24 313 19.3 22.5 0.00 0.00 0.00 41 1013.8
20220626222106 24 312 17.7 24.1 0.00 0.00 0.00 41 1013.8
20220626221605 24 314 19.3 22.5 0.00 0.00 0.00 42 1013.8
20220626221104 24 317 19.3 22.5 0.00 0.00 0.00 41 1013.9
20220626220605 24 315 19.3 22.5 0.00 0.00 0.00 41 1013.9
20220626220106 24 318 16.1 24.1 0.00 0.00 0.00 43 1014.0
20220626215605 23 312 16.1 22.5 0.00 0.00 0.00 43 1014.0
20220626215105 23 313 16.1 20.9 0.00 0.00 0.00 43 1014.1
20220626214604 23 317 16.1 22.5 0.00 0.00 0.00 43 1014.2
20220626214105 23 317 17.7 22.5 0.00 0.00 0.00 44 1014.2
20220626213605 23 317 17.7 22.5 0.00 0.00 0.00 45 1014.2
20220626213105 23 317 14.5 20.9 0.00 0.00 0.00 45 1014.2
20220626212605 23 314 14.5 19.3 0.00 0.00 0.00 45 1014.3
20220626212106 23 318 14.5 19.3 0.00 0.00 0.00 45 1014.3
20220626211605 23 319 12.9 19.3 0.00 0.00 0.00 44 1014.3
20220626211104 23 315 16.1 20.9 0.00 0.00 0.00 45 1014.3
20220626210605 23 318 16.1 19.3 0.00 0.00 0.00 46 1014.4
20220626210105 23 313 14.5 19.3 0.00 0.00 0.00 46 1014.4
20220626205605 23 320 16.1 19.3 0.00 0.00 0.00 46 1014.6
20220626205105 23 326 14.5 19.3 0.00 0.00 0.00 46 1014.7
20220626204605 23 316 14.5 19.3 0.00 0.00 0.00 46 1014.8